createdAt,value
2023-01-25T00:00:01.757Z,51.83
2023-01-25T00:02:28.822Z,54.87
2023-01-25T00:04:55.591Z,56.63
2023-01-25T00:07:23.706Z,51.93
2023-01-25T00:09:50.913Z,50.27
2023-01-25T00:12:17.685Z,50.30
2023-01-25T00:14:45.457Z,52.83
2023-01-25T00:17:12.159Z,55.90
2023-01-25T00:19:38.840Z,53.17
2023-01-25T00:22:05.527Z,51.37
2023-01-25T00:24:32.220Z,55.77
2023-01-25T00:26:58.873Z,57.07
2023-01-25T00:29:25.621Z,59.40
2023-01-25T00:32:02.688Z,54.77
2023-01-25T00:34:29.891Z,53.37
2023-01-25T00:37:12.992Z,53.13
2023-01-25T00:39:39.719Z,45.67
2023-01-25T00:42:10.868Z,49.17
2023-01-25T00:44:38.888Z,54.60
2023-01-25T00:47:05.870Z,59.10
2023-01-25T00:49:33.487Z,55.53
2023-01-25T00:52:00.896Z,54.77
2023-01-25T00:54:27.608Z,58.60
2023-01-25T00:56:56.447Z,58.60
2023-01-25T00:59:24.648Z,57.47
2023-01-25T01:01:52.390Z,55.20
2023-01-25T01:04:20.241Z,57.00
2023-01-25T01:06:47.020Z,56.43
2023-01-25T01:09:17.505Z,53.30
2023-01-25T01:11:44.533Z,48.73
2023-01-25T01:14:12.296Z,57.07
2023-01-25T01:16:39.251Z,50.70
2023-01-25T01:19:06.318Z,49.50
2023-01-25T01:21:33.026Z,50.93
2023-01-25T01:23:59.809Z,55.43
2023-01-25T01:26:26.422Z,49.33
2023-01-25T01:28:53.164Z,51.53
2023-01-25T01:31:23.015Z,49.70
2023-01-25T01:33:53.959Z,53.93
2023-01-25T01:36:26.024Z,59.77
2023-01-25T01:38:53.034Z,54.93
2023-01-25T01:41:20.124Z,52.30
2023-01-25T01:43:46.819Z,53.63
2023-01-25T01:46:31.942Z,61.07
2023-01-25T01:49:03.272Z,52.93
2023-01-25T01:51:51.376Z,50.87
2023-01-25T01:54:25.925Z,59.57
2023-01-25T01:57:16.490Z,57.03
2023-01-25T02:00:00.883Z,57.73
2023-01-25T02:02:27.690Z,57.20
2023-01-25T02:04:59.622Z,61.80
2023-01-25T02:07:38.294Z,59.67
2023-01-25T02:10:09.199Z,57.23
2023-01-25T02:12:37.148Z,55.70
2023-01-25T02:15:05.117Z,57.40
2023-01-25T02:17:37.762Z,53.10
2023-01-25T02:20:18.100Z,47.17
2023-01-25T02:23:15.746Z,50.47
2023-01-25T02:25:43.103Z,48.80
2023-01-25T02:28:16.560Z,55.87
2023-01-25T02:30:44.168Z,51.10
2023-01-25T02:33:11.263Z,53.30
2023-01-25T02:35:40.653Z,53.37
2023-01-25T02:38:08.364Z,46.00
2023-01-25T02:40:43.931Z,51.33
2023-01-25T02:43:10.570Z,54.93
2023-01-25T02:45:37.259Z,48.33
2023-01-25T02:48:04.267Z,51.83
2023-01-25T02:50:30.968Z,55.23
2023-01-25T02:52:57.620Z,51.50
2023-01-25T02:55:24.300Z,50.90
2023-01-25T02:57:51.030Z,51.10
2023-01-25T03:00:18.058Z,51.27
2023-01-25T03:02:44.778Z,47.13
2023-01-25T03:05:11.440Z,49.13
2023-01-25T03:07:38.117Z,52.80
2023-01-25T03:10:05.140Z,53.67
2023-01-25T03:12:31.898Z,49.50
2023-01-25T03:14:58.546Z,47.87
2023-01-25T03:17:25.258Z,44.77
2023-01-25T03:19:53.953Z,50.03
2023-01-25T03:22:20.678Z,49.60
2023-01-25T03:24:47.376Z,48.90
2023-01-25T03:27:14.422Z,46.43
2023-01-25T03:29:41.769Z,53.93
2023-01-25T03:32:08.945Z,46.27
2023-01-25T03:34:36.263Z,47.60
2023-01-25T03:37:03.815Z,51.83
2023-01-25T03:39:30.525Z,48.60
2023-01-25T03:41:57.268Z,50.03
2023-01-25T03:44:24.010Z,47.47
2023-01-25T03:46:50.706Z,57.83
2023-01-25T03:49:19.240Z,51.23
2023-01-25T03:51:45.911Z,46.20
2023-01-25T03:54:12.686Z,47.30
2023-01-25T03:56:39.362Z,45.60
2023-01-25T03:59:06.211Z,49.97
2023-01-25T04:01:33.325Z,50.37
2023-01-25T04:04:00.059Z,55.07
2023-01-25T04:06:26.730Z,48.00
2023-01-25T04:08:53.404Z,43.03
2023-01-25T04:11:20.101Z,45.03
2023-01-25T04:13:46.867Z,47.00
2023-01-25T04:16:13.829Z,43.27
2023-01-25T04:18:40.898Z,39.73
2023-01-25T04:21:07.565Z,39.57
2023-01-25T04:23:34.410Z,41.40
2023-01-25T04:26:05.225Z,46.63
2023-01-25T04:28:33.137Z,43.37
2023-01-25T04:30:59.966Z,39.33
2023-01-25T04:33:27.054Z,44.20
2023-01-25T04:35:53.723Z,39.87
2023-01-25T04:38:20.878Z,41.17
2023-01-25T04:40:47.740Z,41.73
2023-01-25T04:43:16.283Z,42.20
2023-01-25T04:45:43.250Z,37.13
2023-01-25T04:48:12.302Z,49.33
2023-01-25T04:50:43.724Z,47.73
2023-01-25T04:53:12.271Z,37.97
2023-01-25T04:55:39.041Z,40.40
2023-01-25T04:58:05.742Z,40.37
2023-01-25T05:00:32.747Z,40.57
2023-01-25T05:02:59.539Z,40.57
2023-01-25T05:05:26.264Z,42.00
2023-01-25T05:07:53.028Z,39.17
2023-01-25T05:10:19.825Z,40.37
2023-01-25T05:12:46.545Z,35.47
2023-01-25T05:15:13.751Z,36.97
2023-01-25T05:17:40.544Z,41.47
2023-01-25T05:20:08.064Z,38.40
2023-01-25T05:22:34.756Z,38.00
2023-01-25T05:25:02.905Z,41.33
2023-01-25T05:27:29.650Z,41.13
2023-01-25T05:29:57.305Z,45.03
2023-01-25T05:32:24.814Z,42.23
2023-01-25T05:34:52.201Z,40.80
2023-01-25T05:37:21.156Z,39.53
2023-01-25T05:39:48.086Z,43.37
2023-01-25T05:42:17.815Z,38.93
2023-01-25T05:44:47.394Z,39.77
2023-01-25T05:47:17.299Z,38.37
2023-01-25T05:49:44.207Z,40.77
2023-01-25T05:52:15.453Z,44.47
2023-01-25T05:54:42.078Z,39.40
2023-01-25T05:57:08.760Z,39.03
2023-01-25T05:59:35.409Z,42.10
2023-01-25T06:02:02.113Z,41.77
2023-01-25T06:04:28.889Z,42.97
2023-01-25T06:06:55.660Z,48.03
2023-01-25T06:09:23.469Z,46.03
2023-01-25T06:11:50.273Z,47.70
2023-01-25T06:14:17.354Z,42.20
2023-01-25T06:16:43.950Z,40.70
2023-01-25T06:19:13.873Z,46.17
2023-01-25T06:21:40.661Z,40.40
2023-01-25T06:24:07.792Z,45.30
2023-01-25T06:26:34.557Z,50.77
2023-01-25T06:29:01.211Z,46.40
2023-01-25T06:31:27.992Z,48.77
2023-01-25T06:33:54.843Z,56.33
2023-01-25T06:36:22.749Z,52.60
2023-01-25T06:38:51.025Z,47.73
2023-01-25T06:41:18.989Z,53.33
2023-01-25T06:43:45.929Z,51.70
2023-01-25T06:46:12.875Z,53.20
2023-01-25T06:48:41.780Z,52.83
2023-01-25T06:51:11.200Z,55.83
2023-01-25T06:53:42.132Z,54.83
2023-01-25T06:56:21.626Z,52.67
2023-01-25T06:58:49.400Z,57.80
2023-01-25T07:01:21.415Z,54.30
2023-01-25T07:03:53.200Z,49.40
2023-01-25T07:06:20.310Z,57.23
2023-01-25T07:08:47.345Z,56.30
2023-01-25T07:11:14.879Z,51.03
2023-01-25T07:13:45.752Z,56.33
2023-01-25T07:16:18.134Z,55.13
2023-01-25T07:18:44.978Z,57.10
2023-01-25T07:21:21.228Z,47.83
2023-01-25T07:23:49.383Z,52.70
2023-01-25T07:26:24.708Z,56.23
2023-01-25T07:28:52.652Z,43.13
2023-01-25T07:31:20.544Z,48.23
2023-01-25T07:33:56.251Z,54.17
2023-01-25T07:36:23.694Z,46.40
2023-01-25T07:38:54.603Z,53.23
2023-01-25T07:41:21.883Z,45.60
2023-01-25T07:43:48.860Z,49.30
2023-01-25T07:46:16.768Z,50.97
2023-01-25T07:48:48.886Z,44.47
2023-01-25T07:51:23.195Z,46.67
2023-01-25T07:53:52.234Z,46.30
2023-01-25T07:56:22.221Z,55.70
2023-01-25T07:58:49.165Z,53.20
2023-01-25T08:01:18.411Z,48.73
2023-01-25T08:03:49.846Z,55.67
2023-01-25T08:06:17.466Z,54.37
2023-01-25T08:08:47.400Z,55.43
2023-01-25T08:11:21.709Z,48.30
2023-01-25T08:13:49.948Z,48.23
2023-01-25T08:16:18.695Z,49.57
2023-01-25T08:18:54.302Z,45.57
2023-01-25T08:21:21.770Z,45.17
2023-01-25T08:23:48.640Z,47.17
2023-01-25T08:26:17.119Z,51.17
2023-01-25T08:28:44.404Z,44.57
2023-01-25T08:31:16.632Z,52.60
2023-01-25T08:33:44.440Z,44.23
2023-01-25T08:36:11.143Z,47.30
2023-01-25T08:38:37.845Z,45.27
2023-01-25T08:41:09.416Z,40.50
2023-01-25T08:43:36.509Z,38.17
2023-01-25T08:46:03.298Z,36.70
2023-01-25T08:48:29.990Z,42.17
2023-01-25T08:50:56.821Z,42.70
2023-01-25T08:53:23.835Z,43.10
2023-01-25T08:55:51.064Z,45.97
2023-01-25T08:58:22.000Z,50.77
2023-01-25T09:00:49.351Z,40.87
2023-01-25T09:03:18.093Z,44.67
2023-01-25T09:05:45.072Z,52.13
2023-01-25T09:08:11.814Z,49.47
2023-01-25T09:10:38.570Z,48.37
2023-01-25T09:13:07.658Z,44.00
2023-01-25T09:15:35.311Z,50.23
2023-01-25T09:18:01.943Z,53.77
2023-01-25T09:20:30.550Z,49.23
2023-01-25T09:22:59.857Z,53.87
2023-01-25T09:25:26.571Z,55.03
2023-01-25T09:27:53.206Z,50.83
2023-01-25T09:30:20.000Z,45.43
2023-01-25T09:32:50.676Z,47.00
2023-01-25T09:35:17.641Z,55.10
2023-01-25T09:37:44.383Z,46.97
2023-01-25T09:40:28.865Z,53.87
2023-01-25T09:43:24.784Z,48.80
2023-01-25T09:45:51.402Z,46.37
2023-01-25T09:48:38.279Z,54.00
2023-01-25T09:51:17.091Z,51.03
2023-01-25T09:53:51.152Z,50.67
2023-01-25T09:56:26.696Z,47.57
2023-01-25T09:59:04.756Z,51.30
2023-01-25T10:01:39.075Z,49.33
2023-01-25T10:04:14.826Z,60.93
2023-01-25T10:06:55.169Z,54.10
2023-01-25T10:09:37.560Z,50.43
2023-01-25T10:12:23.603Z,51.33
2023-01-25T10:14:50.906Z,56.63
2023-01-25T10:17:35.513Z,50.60
2023-01-25T10:20:24.412Z,45.57
2023-01-25T10:23:11.206Z,46.63
2023-01-25T10:25:46.573Z,51.60
2023-01-25T10:28:57.454Z,59.47
2023-01-25T10:31:53.387Z,58.77
2023-01-25T10:34:35.452Z,52.70
2023-01-25T10:37:19.973Z,53.07
2023-01-25T10:40:14.897Z,57.10
2023-01-25T10:42:48.323Z,64.87
2023-01-25T10:45:16.271Z,64.83
2023-01-25T10:47:49.844Z,66.13
2023-01-25T10:50:47.276Z,64.03
2023-01-25T10:53:39.613Z,69.30
2023-01-25T10:56:09.356Z,71.37
2023-01-25T10:58:38.626Z,75.97
2023-01-25T11:01:07.663Z,70.47
2023-01-25T11:03:40.723Z,74.47
2023-01-25T11:06:09.042Z,74.13
2023-01-25T11:08:38.257Z,65.93
2023-01-25T11:11:21.116Z,69.87
2023-01-25T11:13:47.988Z,74.27
2023-01-25T11:16:29.716Z,69.40
2023-01-25T11:18:57.535Z,67.50
2023-01-25T11:21:27.197Z,71.10
2023-01-25T11:24:09.416Z,65.97
2023-01-25T11:26:38.806Z,65.00
2023-01-25T11:29:22.620Z,74.93
2023-01-25T11:31:54.514Z,74.77
2023-01-25T11:34:26.639Z,76.73
2023-01-25T11:37:35.100Z,83.40
2023-01-25T11:40:13.022Z,79.73
2023-01-25T11:43:17.440Z,78.03
2023-01-25T11:46:06.615Z,77.43
2023-01-25T11:48:58.976Z,76.73
2023-01-25T11:51:35.898Z,76.77
2023-01-25T11:54:28.256Z,71.90
2023-01-25T11:57:07.207Z,82.17
2023-01-25T11:59:50.150Z,75.27
2023-01-25T12:02:36.334Z,79.33
2023-01-25T12:05:33.862Z,75.30
2023-01-25T12:08:32.973Z,85.17
2023-01-25T12:11:11.786Z,76.70
2023-01-25T12:13:52.837Z,79.03
2023-01-25T12:16:42.207Z,81.37
2023-01-25T12:19:37.788Z,83.47
2023-01-25T12:22:28.622Z,73.70
2023-01-25T12:25:02.225Z,85.67
2023-01-25T12:27:47.806Z,83.37
2023-01-25T12:30:38.838Z,80.53
2023-01-25T12:33:15.881Z,85.13
2023-01-25T12:35:54.843Z,76.40
2023-01-25T12:38:49.027Z,87.37
2023-01-25T12:41:38.732Z,75.13
2023-01-25T12:44:20.972Z,78.47
2023-01-25T12:47:03.051Z,84.30
2023-01-25T12:50:09.118Z,84.17
2023-01-25T12:52:51.878Z,83.00
2023-01-25T12:55:18.963Z,82.63
2023-01-25T12:58:14.819Z,80.50
2023-01-25T13:00:57.631Z,77.60
2023-01-25T13:03:55.199Z,81.63
2023-01-25T13:06:32.645Z,83.67
2023-01-25T13:09:25.210Z,85.30
2023-01-25T13:11:52.235Z,76.47
2023-01-25T13:14:28.350Z,81.10
2023-01-25T13:17:10.637Z,78.70
2023-01-25T13:19:37.709Z,72.70
2023-01-25T13:22:04.943Z,75.30
2023-01-25T13:24:33.204Z,71.83
2023-01-25T13:27:36.694Z,74.53
2023-01-25T13:30:29.561Z,81.93
2023-01-25T13:32:58.317Z,79.73
2023-01-25T13:35:26.703Z,79.47
2023-01-25T13:38:25.248Z,82.50
2023-01-25T13:41:11.989Z,78.03
2023-01-25T13:43:40.484Z,74.93
2023-01-25T13:46:11.288Z,76.30
2023-01-25T13:48:46.809Z,87.57
2023-01-25T13:51:16.881Z,78.23
2023-01-25T13:53:55.441Z,81.53
2023-01-25T13:56:28.295Z,71.20
2023-01-25T13:58:54.975Z,76.03
2023-01-25T14:01:23.807Z,81.50
2023-01-25T14:03:55.725Z,89.70
2023-01-25T14:06:25.536Z,85.20
2023-01-25T14:08:54.388Z,76.87
2023-01-25T14:11:23.802Z,83.47
2023-01-25T14:14:12.890Z,84.03
2023-01-25T14:16:40.137Z,75.77
2023-01-25T14:19:22.521Z,80.60
2023-01-25T14:21:49.624Z,80.93
2023-01-25T14:24:19.553Z,77.63
2023-01-25T14:26:47.491Z,76.23
2023-01-25T14:29:35.669Z,80.37
2023-01-25T14:32:03.339Z,76.33
2023-01-25T14:34:30.093Z,79.33
2023-01-25T14:37:14.314Z,70.27
2023-01-25T14:39:41.039Z,69.97
2023-01-25T14:42:08.255Z,72.47
2023-01-25T14:44:35.122Z,79.60
2023-01-25T14:47:23.326Z,79.27
2023-01-25T14:49:50.296Z,73.93
2023-01-25T14:52:19.511Z,71.87
2023-01-25T14:54:54.837Z,78.37
2023-01-25T14:57:29.563Z,74.40
2023-01-25T14:59:57.213Z,77.43
2023-01-25T15:02:30.507Z,71.87
2023-01-25T15:05:15.603Z,78.43
2023-01-25T15:07:46.340Z,80.20
2023-01-25T15:10:28.414Z,77.43
2023-01-25T15:13:17.870Z,74.83
2023-01-25T15:15:59.157Z,75.93
2023-01-25T15:18:51.822Z,74.80
2023-01-25T15:21:24.022Z,79.67
2023-01-25T15:23:51.801Z,74.50
2023-01-25T15:26:26.864Z,80.43
2023-01-25T15:28:56.218Z,77.03
2023-01-25T15:31:34.314Z,81.70
2023-01-25T15:34:01.860Z,75.27
2023-01-25T15:36:30.478Z,69.10
2023-01-25T15:38:57.312Z,74.07
2023-01-25T15:41:24.343Z,73.63
2023-01-25T15:43:51.390Z,72.97
2023-01-25T15:46:22.616Z,75.27
2023-01-25T15:48:50.808Z,72.53
2023-01-25T15:51:18.419Z,77.17
2023-01-25T15:53:45.442Z,74.90
2023-01-25T15:56:30.873Z,77.90
2023-01-25T15:59:00.465Z,75.00
2023-01-25T16:01:29.671Z,70.87
2023-01-25T16:03:58.587Z,77.43
2023-01-25T16:06:33.513Z,73.93
2023-01-25T16:09:01.797Z,74.77
2023-01-25T16:11:28.546Z,84.53
2023-01-25T16:13:55.244Z,78.80
2023-01-25T16:16:23.794Z,77.10
2023-01-25T16:18:50.775Z,81.30
2023-01-25T16:21:17.507Z,76.57
2023-01-25T16:23:44.265Z,80.20
2023-01-25T16:26:29.522Z,81.10
2023-01-25T16:28:56.622Z,80.47
2023-01-25T16:31:32.343Z,75.53
2023-01-25T16:34:01.233Z,84.60
2023-01-25T16:36:28.969Z,79.63
2023-01-25T16:38:55.730Z,86.20
2023-01-25T16:41:22.460Z,81.37
2023-01-25T16:43:49.750Z,85.37
2023-01-25T16:46:17.985Z,75.27
2023-01-25T16:48:46.398Z,90.37
2023-01-25T16:51:24.649Z,83.57
2023-01-25T16:53:55.419Z,81.70
2023-01-25T16:56:30.198Z,80.87
2023-01-25T16:59:02.331Z,78.17
2023-01-25T17:01:29.132Z,79.97
2023-01-25T17:03:56.176Z,77.27
2023-01-25T17:06:28.651Z,77.70
2023-01-25T17:09:09.440Z,75.37
2023-01-25T17:11:39.986Z,85.87
2023-01-25T17:14:07.202Z,76.77
2023-01-25T17:16:34.532Z,84.47
2023-01-25T17:19:04.479Z,89.37
2023-01-25T17:21:32.235Z,83.60
2023-01-25T17:24:00.565Z,84.17
2023-01-25T17:26:29.114Z,79.87
2023-01-25T17:28:57.717Z,83.53
2023-01-25T17:31:27.525Z,76.53
2023-01-25T17:33:55.466Z,83.17
2023-01-25T17:36:22.737Z,78.97
2023-01-25T17:38:49.776Z,87.83
2023-01-25T17:41:17.397Z,82.03
2023-01-25T17:43:44.271Z,72.13
2023-01-25T17:46:18.097Z,76.77
2023-01-25T17:48:45.391Z,70.17
2023-01-25T17:51:12.078Z,81.77
2023-01-25T17:53:38.946Z,67.07
2023-01-25T17:56:07.190Z,74.33
2023-01-25T17:58:38.127Z,77.23
2023-01-25T18:01:19.990Z,86.07
2023-01-25T18:03:48.278Z,80.40
2023-01-25T18:06:18.077Z,71.90
2023-01-25T18:08:47.948Z,82.20
2023-01-25T18:11:19.844Z,76.03
2023-01-25T18:13:49.463Z,72.17
2023-01-25T18:16:18.765Z,67.30
2023-01-25T18:18:46.128Z,66.47
2023-01-25T18:21:24.269Z,66.10
2023-01-25T18:23:53.902Z,72.40
2023-01-25T18:26:26.232Z,73.23
2023-01-25T18:28:57.997Z,68.80
2023-01-25T18:31:24.888Z,66.13
2023-01-25T18:33:51.609Z,73.60
2023-01-25T18:36:18.767Z,63.97
2023-01-25T18:38:45.575Z,64.97
2023-01-25T18:41:12.688Z,63.40
2023-01-25T18:43:39.436Z,60.63
2023-01-25T18:46:06.452Z,63.00
2023-01-25T18:48:36.527Z,66.57
2023-01-25T18:51:09.063Z,62.13
2023-01-25T18:53:38.035Z,61.57
2023-01-25T18:56:12.406Z,64.40
2023-01-25T18:58:39.343Z,66.53
2023-01-25T19:01:12.361Z,62.57
2023-01-25T19:03:39.171Z,65.63
2023-01-25T19:06:06.231Z,61.47
2023-01-25T19:08:33.670Z,64.23
2023-01-25T19:11:02.298Z,59.43
2023-01-25T19:13:32.220Z,67.50
2023-01-25T19:16:00.883Z,65.53
2023-01-25T19:18:35.455Z,72.67
2023-01-25T19:21:06.351Z,66.27
2023-01-25T19:23:35.315Z,83.50
2023-01-25T19:26:02.005Z,60.23
2023-01-25T19:28:29.254Z,68.40
2023-01-25T19:30:56.726Z,78.13
2023-01-25T19:33:23.739Z,71.70
2023-01-25T19:35:59.937Z,78.07
2023-01-25T19:38:26.825Z,83.03
2023-01-25T19:40:53.564Z,79.57
2023-01-25T19:43:20.243Z,75.93
2023-01-25T19:45:46.930Z,78.27
2023-01-25T19:48:13.565Z,82.43
2023-01-25T19:50:40.355Z,70.20
2023-01-25T19:53:07.087Z,76.57
2023-01-25T19:55:33.895Z,73.63
2023-01-25T19:58:00.565Z,76.73
2023-01-25T20:00:27.571Z,80.87
2023-01-25T20:02:57.380Z,67.57
2023-01-25T20:05:28.230Z,82.63
2023-01-25T20:07:55.502Z,76.23
2023-01-25T20:10:22.296Z,82.87
2023-01-25T20:12:48.958Z,89.93
2023-01-25T20:15:15.921Z,82.90
2023-01-25T20:17:43.551Z,86.30
2023-01-25T20:20:10.989Z,84.67
2023-01-25T20:22:37.815Z,89.10
2023-01-25T20:25:04.894Z,82.50
2023-01-25T20:27:31.519Z,83.10
2023-01-25T20:29:58.344Z,84.90
2023-01-25T20:32:32.832Z,70.93
2023-01-25T20:35:03.383Z,81.83
2023-01-25T20:37:30.186Z,81.07
2023-01-25T20:39:56.946Z,82.07
2023-01-25T20:42:23.726Z,77.77
2023-01-25T20:44:50.429Z,74.13
2023-01-25T20:47:17.064Z,78.73
2023-01-25T20:49:43.723Z,76.80
2023-01-25T20:52:13.712Z,80.37
2023-01-25T20:54:41.657Z,69.73
2023-01-25T20:57:08.880Z,72.53
2023-01-25T20:59:35.520Z,63.03
2023-01-25T21:02:02.371Z,68.47
2023-01-25T21:04:29.036Z,66.33
2023-01-25T21:06:55.720Z,70.40
2023-01-25T21:09:23.337Z,66.60
2023-01-25T21:11:50.080Z,69.43
2023-01-25T21:14:16.865Z,69.57
2023-01-25T21:16:43.537Z,69.97
2023-01-25T21:19:10.575Z,73.83
2023-01-25T21:21:38.568Z,69.13
2023-01-25T21:24:05.977Z,68.63
2023-01-25T21:26:34.277Z,59.73
2023-01-25T21:29:02.387Z,62.03
2023-01-25T21:31:33.701Z,66.03
2023-01-25T21:34:01.308Z,63.40
2023-01-25T21:36:28.482Z,62.67
2023-01-25T21:38:55.477Z,56.03
2023-01-25T21:41:29.086Z,61.33
2023-01-25T21:44:16.238Z,72.97
2023-01-25T21:46:49.264Z,67.00
2023-01-25T21:49:37.420Z,60.43
2023-01-25T21:52:04.310Z,62.73
2023-01-25T21:54:37.077Z,60.40
2023-01-25T21:57:09.277Z,58.80
2023-01-25T21:59:36.591Z,54.53
2023-01-25T22:02:05.116Z,61.83
2023-01-25T22:04:36.120Z,57.23
2023-01-25T22:07:04.393Z,57.93
2023-01-25T22:09:31.474Z,60.57
2023-01-25T22:11:58.387Z,63.63
2023-01-25T22:14:25.415Z,66.03
2023-01-25T22:16:52.411Z,66.40
2023-01-25T22:19:19.483Z,56.97
2023-01-25T22:21:46.274Z,57.87
2023-01-25T22:24:13.388Z,57.93
2023-01-25T22:26:46.388Z,64.10
2023-01-25T22:29:13.981Z,57.17
2023-01-25T22:31:41.441Z,61.30
2023-01-25T22:34:08.250Z,62.30
2023-01-25T22:36:35.281Z,57.90
2023-01-25T22:39:02.065Z,61.20
2023-01-25T22:41:31.008Z,56.43
2023-01-25T22:43:58.422Z,54.87
2023-01-25T22:46:27.690Z,56.97
2023-01-25T22:48:54.682Z,67.73
2023-01-25T22:51:25.428Z,58.70
2023-01-25T22:53:53.442Z,57.57
2023-01-25T22:56:23.067Z,62.33
2023-01-25T22:58:50.680Z,55.07
2023-01-25T23:01:25.413Z,58.07
2023-01-25T23:03:52.942Z,66.03
2023-01-25T23:06:25.519Z,61.07
2023-01-25T23:08:55.284Z,62.43
2023-01-25T23:11:24.243Z,66.77
2023-01-25T23:14:11.438Z,63.43
2023-01-25T23:16:38.104Z,71.20
2023-01-25T23:19:05.496Z,63.60
2023-01-25T23:21:32.699Z,68.77
2023-01-25T23:24:00.969Z,64.40
2023-01-25T23:26:29.776Z,62.00
2023-01-25T23:28:57.561Z,65.63
2023-01-25T23:31:26.116Z,58.80
2023-01-25T23:33:59.435Z,71.60
2023-01-25T23:36:28.668Z,66.70
2023-01-25T23:38:56.451Z,69.27
2023-01-25T23:41:26.232Z,68.93
2023-01-25T23:43:53.396Z,75.13
2023-01-25T23:46:20.143Z,65.73
2023-01-25T23:48:46.953Z,66.50
2023-01-25T23:51:15.621Z,65.97
2023-01-25T23:53:43.166Z,63.60
2023-01-25T23:56:19.002Z,65.07
2023-01-25T23:58:46.363Z,64.80
